createdAt,value
2016-02-14T00:00:38.242Z,967.02
2016-02-14T00:01:38.260Z,967.02
2016-02-14T00:02:38.232Z,967.03
2016-02-14T00:03:38.235Z,967.04
2016-02-14T00:04:38.221Z,966.99
2016-02-14T00:05:38.224Z,967.01
2016-02-14T00:06:38.227Z,966.99
2016-02-14T00:07:38.214Z,967.01
2016-02-14T00:08:38.217Z,966.98
2016-02-14T00:09:38.204Z,966.97
2016-02-14T00:10:38.191Z,966.91
2016-02-14T00:11:38.194Z,966.92
2016-02-14T00:12:38.181Z,966.89
2016-02-14T00:13:38.183Z,966.89
2016-02-14T00:14:38.187Z,966.92
2016-02-14T00:15:38.173Z,966.94
2016-02-14T00:16:38.175Z,966.99
2016-02-14T00:17:38.179Z,967.02
2016-02-14T00:18:38.165Z,967.06
2016-02-14T00:19:38.153Z,967
2016-02-14T00:20:38.155Z,967.01
2016-02-14T00:21:38.142Z,966.97
2016-02-14T00:22:38.145Z,966.93
2016-02-14T00:23:38.148Z,966.92
2016-02-14T00:24:38.135Z,966.87
2016-02-14T00:25:38.152Z,966.88
2016-02-14T00:26:38.125Z,966.84
2016-02-14T00:27:38.127Z,966.82
2016-02-14T00:28:38.114Z,966.77
2016-02-14T00:29:38.117Z,966.8
2016-02-14T00:30:38.120Z,966.82
2016-02-14T00:31:38.129Z,966.79
2016-02-14T00:32:38.101Z,966.79
2016-02-14T00:33:38.103Z,966.71
2016-02-14T00:34:38.106Z,966.77
2016-02-14T00:35:38.098Z,966.79
2016-02-14T00:36:38.100Z,966.71
2016-02-14T00:37:38.088Z,966.74
2016-02-14T00:38:38.091Z,966.76
2016-02-14T00:39:38.077Z,966.74
2016-02-14T00:40:38.081Z,966.72
2016-02-14T00:41:38.083Z,966.67
2016-02-14T00:42:38.069Z,966.72
2016-02-14T00:43:38.073Z,966.74
2016-02-14T00:44:38.060Z,966.7
2016-02-14T00:45:38.062Z,966.7
2016-02-14T00:46:38.065Z,966.7
2016-02-14T00:47:38.052Z,966.71
2016-02-14T00:48:38.054Z,966.66
2016-02-14T00:49:38.042Z,966.62
2016-02-14T00:50:38.044Z,966.62
2016-02-14T00:51:38.032Z,966.6
2016-02-14T00:52:38.035Z,966.59
2016-02-14T00:53:38.021Z,966.55
2016-02-14T00:54:38.023Z,966.54
2016-02-14T00:55:38.043Z,966.51
2016-02-14T00:56:38.029Z,966.53
2016-02-14T00:57:38.017Z,966.51
2016-02-14T00:58:38.020Z,966.52
2016-02-14T00:59:38.006Z,966.49
2016-02-14T01:00:38.009Z,966.46
2016-02-14T01:01:38.012Z,966.48
2016-02-14T01:02:37.998Z,966.45
2016-02-14T01:03:37.986Z,966.51
2016-02-14T01:04:37.989Z,966.43
2016-02-14T01:05:37.991Z,966.44
2016-02-14T01:06:37.994Z,966.44
2016-02-14T01:07:37.981Z,966.41
2016-02-14T01:08:37.968Z,966.41
2016-02-14T01:09:37.970Z,966.46
2016-02-14T01:10:37.973Z,966.48
2016-02-14T01:11:37.960Z,966.5
2016-02-14T01:12:37.963Z,966.51
2016-02-14T01:13:37.950Z,966.5
2016-02-14T01:14:37.952Z,966.5
2016-02-14T01:15:37.956Z,966.5
2016-02-14T01:16:37.958Z,966.5
2016-02-14T01:17:37.946Z,966.49
2016-02-14T01:18:37.948Z,966.46
2016-02-14T01:19:37.935Z,966.41
2016-02-14T01:20:37.938Z,966.41
2016-02-14T01:21:37.924Z,966.4
2016-02-14T01:22:37.927Z,966.37
2016-02-14T01:23:37.930Z,966.35
2016-02-14T01:24:37.918Z,966.39
2016-02-14T01:25:37.921Z,966.37
2016-02-14T01:26:37.907Z,966.42
2016-02-14T01:27:37.909Z,966.38
2016-02-14T01:28:37.913Z,966.36
2016-02-14T01:29:37.899Z,966.41
2016-02-14T01:30:37.901Z,966.38
2016-02-14T01:31:37.904Z,966.42
2016-02-14T01:32:37.907Z,966.37
2016-02-14T01:33:37.894Z,966.43
2016-02-14T01:34:37.898Z,966.4
2016-02-14T01:35:37.884Z,966.4
2016-02-14T01:36:37.886Z,966.44
2016-02-14T01:37:37.875Z,966.42
2016-02-14T01:38:37.877Z,966.38
2016-02-14T01:39:37.879Z,966.36
2016-02-14T01:40:37.867Z,966.37
2016-02-14T01:41:37.869Z,966.38
2016-02-14T01:42:37.856Z,966.38
2016-02-14T01:43:37.859Z,966.34
2016-02-14T01:44:37.861Z,966.36
2016-02-14T01:45:37.849Z,966.37
2016-02-14T01:46:37.852Z,966.4
2016-02-14T01:47:37.854Z,966.38
2016-02-14T01:48:37.841Z,966.37
2016-02-14T01:49:37.843Z,966.37
2016-02-14T01:50:37.830Z,966.39
2016-02-14T01:51:37.833Z,966.36
2016-02-14T01:52:37.835Z,966.4
2016-02-14T01:53:37.823Z,966.39
2016-02-14T01:54:37.826Z,966.37
2016-02-14T01:55:37.843Z,966.32
2016-02-14T01:56:37.846Z,966.32
2016-02-14T01:57:37.818Z,966.28
2016-02-14T01:58:37.821Z,966.26
2016-02-14T01:59:37.809Z,966.28
2016-02-14T02:00:37.812Z,966.31
2016-02-14T02:01:37.798Z,966.33
2016-02-14T02:02:37.801Z,966.32
2016-02-14T02:03:37.803Z,966.33
2016-02-14T02:04:37.790Z,966.3
2016-02-14T02:05:37.793Z,966.35
2016-02-14T02:06:37.795Z,966.33
2016-02-14T02:07:37.783Z,966.31
2016-02-14T02:08:37.786Z,966.27
2016-02-14T02:09:37.773Z,966.26
2016-02-14T02:10:37.775Z,966.23
2016-02-14T02:11:37.778Z,966.2
2016-02-14T02:12:37.764Z,966.18
2016-02-14T02:13:37.768Z,966.16
2016-02-14T02:14:37.755Z,966.18
2016-02-14T02:15:37.757Z,966.2
2016-02-14T02:16:37.760Z,966.16
2016-02-14T02:17:37.763Z,966.18
2016-02-14T02:18:37.766Z,966.2
2016-02-14T02:19:37.753Z,966.18
2016-02-14T02:20:37.740Z,966.21
2016-02-14T02:21:37.742Z,966.18
2016-02-14T02:22:37.746Z,966.16
2016-02-14T02:23:37.748Z,966.14
2016-02-14T02:24:37.734Z,966.11
2016-02-14T02:25:37.738Z,966.12
2016-02-14T02:26:37.740Z,966.14
2016-02-14T02:27:37.727Z,966.1
2016-02-14T02:28:37.730Z,966.13
2016-02-14T02:29:37.717Z,966.12
2016-02-14T02:30:37.720Z,966.08
2016-02-14T02:31:37.707Z,966.1
2016-02-14T02:32:37.709Z,966.13
2016-02-14T02:33:37.712Z,966.1
2016-02-14T02:34:37.699Z,966.13
2016-02-14T02:35:37.701Z,966.1
2016-02-14T02:36:37.704Z,966.12
2016-02-14T02:37:37.692Z,966.18
2016-02-14T02:38:37.694Z,966.19
2016-02-14T02:39:37.697Z,966.14
2016-02-14T02:40:37.684Z,966.11
2016-02-14T02:41:37.686Z,966.15
2016-02-14T02:42:37.689Z,966.15
2016-02-14T02:43:37.677Z,966.15
2016-02-14T02:44:37.679Z,966.18
2016-02-14T02:45:37.682Z,966.2
2016-02-14T02:46:37.669Z,966.18
2016-02-14T02:47:37.672Z,966.21
2016-02-14T02:48:37.658Z,966.22
2016-02-14T02:49:37.661Z,966.22
2016-02-14T02:50:37.664Z,966.17
2016-02-14T02:51:37.666Z,966.15
2016-02-14T02:52:37.654Z,966.16
2016-02-14T02:53:37.657Z,966.15
2016-02-14T02:54:37.660Z,966.12
2016-02-14T02:55:37.678Z,966.16
2016-02-14T02:56:37.837Z,966.11
2016-02-14T02:57:37.635Z,966.06
2016-02-14T02:58:37.639Z,966.07
2016-02-14T02:59:37.626Z,966.03
2016-02-14T03:00:37.628Z,966.04
2016-02-14T03:01:37.615Z,966.01
2016-02-14T03:02:37.618Z,965.98
2016-02-14T03:03:37.620Z,965.89
2016-02-14T03:04:37.609Z,965.86
2016-02-14T03:05:37.626Z,965.88
2016-02-14T03:06:37.613Z,965.88
2016-02-14T03:07:37.601Z,965.94
2016-02-14T03:08:37.603Z,965.89
2016-02-14T03:09:37.605Z,965.9
2016-02-14T03:10:37.593Z,965.9
2016-02-14T03:11:37.595Z,965.91
2016-02-14T03:12:37.598Z,965.89
2016-02-14T03:13:37.586Z,965.9
2016-02-14T03:14:37.588Z,965.88
2016-02-14T03:15:37.575Z,965.86
2016-02-14T03:16:37.578Z,965.87
2016-02-14T03:17:37.581Z,965.81
2016-02-14T03:18:37.567Z,965.88
2016-02-14T03:19:37.569Z,965.87
2016-02-14T03:20:37.573Z,965.88
2016-02-14T03:21:37.560Z,965.9
2016-02-14T03:22:37.563Z,965.85
2016-02-14T03:23:37.565Z,965.86
2016-02-14T03:24:37.552Z,965.9
2016-02-14T03:25:37.571Z,965.87
2016-02-14T03:26:37.557Z,965.87
2016-02-14T03:27:37.545Z,965.89
2016-02-14T03:28:37.548Z,965.85
2016-02-14T03:29:37.535Z,965.83
2016-02-14T03:30:37.537Z,965.89
2016-02-14T03:31:37.540Z,965.85
2016-02-14T03:32:37.527Z,965.86
2016-02-14T03:33:37.529Z,965.87
2016-02-14T03:34:37.517Z,965.84
2016-02-14T03:35:37.520Z,965.88
2016-02-14T03:36:37.506Z,965.8
2016-02-14T03:37:37.509Z,965.85
2016-02-14T03:38:37.512Z,965.83
2016-02-14T03:39:37.498Z,965.82
2016-02-14T03:40:37.502Z,965.82
2016-02-14T03:41:37.489Z,965.81
2016-02-14T03:42:37.506Z,965.82
2016-02-14T03:43:37.494Z,965.81
2016-02-14T03:44:37.497Z,965.81
2016-02-14T03:45:37.483Z,965.85
2016-02-14T03:46:37.486Z,965.86
2016-02-14T03:47:37.474Z,965.91
2016-02-14T03:48:37.491Z,965.85
2016-02-14T03:49:37.480Z,965.84
2016-02-14T03:50:37.466Z,965.79
2016-02-14T03:51:37.468Z,965.82
2016-02-14T03:52:37.456Z,965.82
2016-02-14T03:53:37.458Z,965.8
2016-02-14T03:54:37.461Z,965.74
2016-02-14T03:55:37.448Z,965.73
2016-02-14T03:56:37.466Z,965.74
2016-02-14T03:57:37.438Z,965.7
2016-02-14T03:58:37.457Z,965.67
2016-02-14T03:59:37.443Z,965.6
2016-02-14T04:00:37.430Z,965.62
2016-02-14T04:01:37.432Z,965.63
2016-02-14T04:02:37.436Z,965.62
2016-02-14T04:03:37.423Z,965.62
2016-02-14T04:04:37.425Z,965.66
2016-02-14T04:05:37.413Z,965.64
2016-02-14T04:06:37.415Z,965.63
2016-02-14T04:07:37.418Z,965.62
2016-02-14T04:08:37.420Z,965.64
2016-02-14T04:09:37.408Z,965.62
2016-02-14T04:10:37.410Z,965.62
2016-02-14T04:11:37.398Z,965.61
2016-02-14T04:12:37.400Z,965.62
2016-02-14T04:13:37.402Z,965.67
2016-02-14T04:14:37.390Z,965.66
2016-02-14T04:15:37.392Z,965.62
2016-02-14T04:16:37.395Z,965.66
2016-02-14T04:17:37.383Z,965.66
2016-02-14T04:18:37.385Z,965.71
2016-02-14T04:19:37.388Z,965.77
2016-02-14T04:20:37.375Z,965.81
2016-02-14T04:21:37.377Z,965.83
2016-02-14T04:22:37.364Z,965.77
2016-02-14T04:23:37.367Z,965.71
2016-02-14T04:24:37.369Z,965.75
2016-02-14T04:25:37.372Z,965.76
2016-02-14T04:26:37.360Z,965.74
2016-02-14T04:27:37.347Z,965.76
2016-02-14T04:28:37.349Z,965.69
2016-02-14T04:29:37.352Z,965.74
2016-02-14T04:30:37.354Z,965.7
2016-02-14T04:31:37.342Z,965.75
2016-02-14T04:32:37.344Z,965.73
2016-02-14T04:33:37.331Z,965.72
2016-02-14T04:34:37.334Z,965.65
2016-02-14T04:35:37.321Z,965.69
2016-02-14T04:36:37.324Z,965.7
2016-02-14T04:37:37.326Z,965.68
2016-02-14T04:38:37.329Z,965.69
2016-02-14T04:39:37.332Z,965.65
2016-02-14T04:40:37.319Z,965.68
2016-02-14T04:41:37.306Z,965.65
2016-02-14T04:42:37.313Z,965.69
2016-02-14T04:43:37.315Z,965.67
2016-02-14T04:44:37.303Z,965.67
2016-02-14T04:45:37.305Z,965.68
2016-02-14T04:46:37.293Z,965.7
2016-02-14T04:47:37.295Z,965.69
2016-02-14T04:48:37.298Z,965.72
2016-02-14T04:49:37.284Z,965.72
2016-02-14T04:50:37.288Z,965.66
2016-02-14T04:51:37.274Z,965.64
2016-02-14T04:52:37.276Z,965.62
2016-02-14T04:53:37.279Z,965.64
2016-02-14T04:54:37.267Z,965.61
2016-02-14T04:55:37.285Z,965.59
2016-02-14T04:56:37.272Z,965.58
2016-02-14T04:57:37.259Z,965.58
2016-02-14T04:58:37.247Z,965.63
2016-02-14T04:59:37.250Z,965.59
2016-02-14T05:00:37.267Z,965.63
2016-02-14T05:01:37.255Z,965.63
2016-02-14T05:02:37.257Z,965.57
2016-02-14T05:03:37.261Z,965.6
2016-02-14T05:04:37.247Z,965.52
2016-02-14T05:05:37.233Z,965.56
2016-02-14T05:06:37.236Z,965.5
2016-02-14T05:07:37.224Z,965.49
2016-02-14T05:08:37.227Z,965.52
2016-02-14T05:09:37.214Z,965.51
2016-02-14T05:10:37.216Z,965.53
2016-02-14T05:11:37.218Z,965.51
2016-02-14T05:12:37.223Z,965.5
2016-02-14T05:13:37.209Z,965.53
2016-02-14T05:14:37.211Z,965.53
2016-02-14T05:15:37.215Z,965.47
2016-02-14T05:16:37.202Z,965.51
2016-02-14T05:17:37.205Z,965.5
2016-02-14T05:18:37.192Z,965.49
2016-02-14T05:19:37.194Z,965.5
2016-02-14T05:20:37.182Z,965.49
2016-02-14T05:21:37.185Z,965.48
2016-02-14T05:22:37.187Z,965.49
2016-02-14T05:23:37.190Z,965.48
2016-02-14T05:24:37.176Z,965.49
2016-02-14T05:25:37.180Z,965.46
2016-02-14T05:26:37.166Z,965.45
2016-02-14T05:27:37.169Z,965.48
2016-02-14T05:28:37.157Z,965.44
2016-02-14T05:29:37.159Z,965.46
2016-02-14T05:30:37.162Z,965.46
2016-02-14T05:31:37.165Z,965.47
2016-02-14T05:32:37.151Z,965.48
2016-02-14T05:33:37.153Z,965.5
2016-02-14T05:34:37.141Z,965.46
2016-02-14T05:35:37.143Z,965.48
2016-02-14T05:36:37.131Z,965.46
2016-02-14T05:37:37.134Z,965.46
2016-02-14T05:38:37.136Z,965.45
2016-02-14T05:39:37.139Z,965.52
2016-02-14T05:40:37.126Z,965.46
2016-02-14T05:41:37.113Z,965.49
2016-02-14T05:42:37.116Z,965.5
2016-02-14T05:43:37.118Z,965.47
2016-02-14T05:44:37.105Z,965.45
2016-02-14T05:45:37.109Z,965.46
2016-02-14T05:46:37.111Z,965.48
2016-02-14T05:47:37.098Z,965.45
2016-02-14T05:48:37.100Z,965.44
2016-02-14T05:49:37.088Z,965.45
2016-02-14T05:50:37.091Z,965.41
2016-02-14T05:51:37.093Z,965.41
2016-02-14T05:52:37.080Z,965.41
2016-02-14T05:53:37.083Z,965.4
2016-02-14T05:54:37.086Z,965.4
2016-02-14T05:55:37.089Z,965.39
2016-02-14T05:56:37.091Z,965.44
2016-02-14T05:57:37.062Z,965.4
2016-02-14T05:58:37.065Z,965.4
2016-02-14T05:59:37.068Z,965.45
2016-02-14T06:00:37.054Z,965.43
2016-02-14T06:01:37.057Z,965.47
2016-02-14T06:02:37.045Z,965.44
2016-02-14T06:03:37.062Z,965.45
2016-02-14T06:04:37.040Z,965.47
2016-02-14T06:05:37.026Z,965.42
2016-02-14T06:06:37.029Z,965.45
2016-02-14T06:07:37.016Z,965.49
2016-02-14T06:08:37.019Z,965.48
2016-02-14T06:09:37.022Z,965.47
2016-02-14T06:10:37.008Z,965.47
2016-02-14T06:11:37.012Z,965.5
2016-02-14T06:12:36.998Z,965.45
2016-02-14T06:13:37.000Z,965.47
2016-02-14T06:14:37.003Z,965.5
2016-02-14T06:15:37.006Z,965.47
2016-02-14T06:16:36.993Z,965.5
2016-02-14T06:17:36.980Z,965.49
2016-02-14T06:18:36.983Z,965.52
2016-02-14T06:19:36.985Z,965.51
2016-02-14T06:20:36.973Z,965.52
2016-02-14T06:21:36.975Z,965.5
2016-02-14T06:22:36.977Z,965.53
2016-02-14T06:23:36.980Z,965.54
2016-02-14T06:24:36.968Z,965.55
2016-02-14T06:25:36.970Z,965.57
2016-02-14T06:26:36.957Z,965.56
2016-02-14T06:27:36.960Z,965.59
2016-02-14T06:28:36.948Z,965.63
2016-02-14T06:29:36.951Z,965.59
2016-02-14T06:30:36.953Z,965.61
2016-02-14T06:31:36.940Z,965.64
2016-02-14T06:32:36.943Z,965.64
2016-02-14T06:33:36.929Z,965.64
2016-02-14T06:34:36.932Z,965.63
2016-02-14T06:35:36.934Z,965.61
2016-02-14T06:36:36.923Z,965.65
2016-02-14T06:37:36.925Z,965.65
2016-02-14T06:38:36.943Z,965.69
2016-02-14T06:39:36.914Z,965.71
2016-02-14T06:40:36.917Z,965.71
2016-02-14T06:41:36.919Z,965.71
2016-02-14T06:42:36.923Z,965.74
2016-02-14T06:43:36.894Z,965.68
2016-02-14T06:44:36.896Z,965.68
2016-02-14T06:45:36.900Z,965.68
2016-02-14T06:46:36.902Z,965.65
2016-02-14T06:47:36.889Z,965.68
2016-02-14T06:48:36.892Z,965.68
2016-02-14T06:49:36.880Z,965.68
2016-02-14T06:50:36.882Z,965.69
2016-02-14T06:51:36.885Z,965.66
2016-02-14T06:52:36.871Z,965.7
2016-02-14T06:53:36.874Z,965.71
2016-02-14T06:54:36.877Z,965.7
2016-02-14T06:55:36.863Z,965.68
2016-02-14T06:56:36.882Z,965.69
2016-02-14T06:57:36.854Z,965.71
2016-02-14T06:58:36.857Z,965.69
2016-02-14T06:59:36.859Z,965.71
2016-02-14T07:00:36.940Z,965.67
2016-02-14T07:01:36.838Z,965.7
2016-02-14T07:02:36.830Z,965.76
2016-02-14T07:03:36.808Z,965.79
2016-02-14T07:04:36.800Z,965.74
2016-02-14T07:05:36.779Z,965.79
2016-02-14T07:06:36.778Z,965.79
2016-02-14T07:07:36.760Z,965.78
2016-02-14T07:08:36.760Z,965.77
2016-02-14T07:09:36.759Z,965.77
2016-02-14T07:10:36.743Z,965.75
2016-02-14T07:11:36.745Z,965.76
2016-02-14T07:12:36.747Z,965.79
2016-02-14T07:13:36.732Z,965.8
2016-02-14T07:14:36.733Z,965.73
2016-02-14T07:15:36.736Z,965.77
2016-02-14T07:16:36.722Z,965.82
2016-02-14T07:17:36.723Z,965.85
2016-02-14T07:18:36.726Z,965.86
2016-02-14T07:19:36.728Z,965.89
2016-02-14T07:20:36.716Z,965.87
2016-02-14T07:21:36.718Z,965.84
2016-02-14T07:22:36.721Z,965.86
2016-02-14T07:23:36.706Z,965.9
2016-02-14T07:24:36.709Z,965.91
2016-02-14T07:25:36.695Z,965.91
2016-02-14T07:26:36.698Z,965.87
2016-02-14T07:27:36.701Z,965.85
2016-02-14T07:28:36.704Z,965.9
2016-02-14T07:29:36.706Z,965.89
2016-02-14T07:30:36.755Z,965.87
2016-02-14T07:31:36.697Z,965.9
2016-02-14T07:32:36.683Z,965.95
2016-02-14T07:33:36.686Z,965.89
2016-02-14T07:34:36.689Z,965.91
2016-02-14T07:35:36.691Z,965.91
2016-02-14T07:36:36.679Z,965.93
2016-02-14T07:37:36.682Z,965.97
2016-02-14T07:38:36.668Z,965.95
2016-02-14T07:39:36.670Z,965.97
2016-02-14T07:40:36.674Z,966.01
2016-02-14T07:41:36.676Z,966.02
2016-02-14T07:42:36.663Z,966.05
2016-02-14T07:43:36.666Z,966.05
2016-02-14T07:44:36.653Z,966.05
2016-02-14T07:45:36.671Z,966.01
2016-02-14T07:46:36.659Z,966.05
2016-02-14T07:47:36.661Z,966.08
2016-02-14T07:48:36.648Z,966.05
2016-02-14T07:49:36.651Z,965.97
2016-02-14T07:50:36.653Z,966.01
2016-02-14T07:51:36.641Z,965.96
2016-02-14T07:52:36.643Z,965.96
2016-02-14T07:53:36.646Z,965.96
2016-02-14T07:54:36.648Z,965.96
2016-02-14T07:55:36.636Z,966
2016-02-14T07:56:36.639Z,966.01
2016-02-14T07:57:36.641Z,966.04
2016-02-14T07:58:36.628Z,965.98
2016-02-14T07:59:36.630Z,965.99
2016-02-14T08:00:36.634Z,965.99
2016-02-14T08:01:36.636Z,966.02
2016-02-14T08:02:36.624Z,966.01
2016-02-14T08:03:36.626Z,966.05
2016-02-14T08:04:36.613Z,966.04
2016-02-14T08:05:36.616Z,966.04
2016-02-14T08:06:36.618Z,966.03
2016-02-14T08:07:36.621Z,966.02
2016-02-14T08:08:36.624Z,966.01
2016-02-14T08:09:36.627Z,966.03
2016-02-14T08:10:36.613Z,966.05
2016-02-14T08:11:36.632Z,966.04
2016-02-14T08:12:36.618Z,966.04
2016-02-14T08:13:36.607Z,966.03
2016-02-14T08:14:36.609Z,966.01
2016-02-14T08:15:36.611Z,966.01
2016-02-14T08:16:36.599Z,966.02
2016-02-14T08:17:36.601Z,966.05
2016-02-14T08:18:36.604Z,966.02
2016-02-14T08:19:36.810Z,966.04
2016-02-14T08:20:36.593Z,966.03
2016-02-14T08:21:36.612Z,966.03
2016-02-14T08:22:36.599Z,966.08
2016-02-14T08:23:36.587Z,966.05
2016-02-14T08:24:36.588Z,966.05
2016-02-14T08:25:36.638Z,966.07
2016-02-14T08:26:36.594Z,966.1
2016-02-14T08:27:36.597Z,966.11
2016-02-14T08:28:36.600Z,966.08
2016-02-14T08:29:36.586Z,966.1
2016-02-14T08:30:36.589Z,966.13
2016-02-14T08:31:36.592Z,966.17
2016-02-14T08:32:36.579Z,966.19
2016-02-14T08:33:36.582Z,966.19
2016-02-14T08:34:36.585Z,966.17
2016-02-14T08:35:36.587Z,966.19
2016-02-14T08:36:36.575Z,966.14
2016-02-14T08:37:36.593Z,966.14
2016-02-14T08:38:36.579Z,966.21
2016-02-14T08:39:36.582Z,966.2
2016-02-14T08:40:36.585Z,966.18
2016-02-14T08:41:36.572Z,966.23
2016-02-14T08:42:36.574Z,966.25
2016-02-14T08:43:36.577Z,966.26
2016-02-14T08:44:36.564Z,966.32
2016-02-14T08:45:36.568Z,966.28
2016-02-14T08:46:36.570Z,966.36
2016-02-14T08:47:36.572Z,966.35
2016-02-14T08:48:36.575Z,966.4
2016-02-14T08:49:36.562Z,966.41
2016-02-14T08:50:36.565Z,966.38
2016-02-14T08:51:36.568Z,966.41
2016-02-14T08:52:36.570Z,966.43
2016-02-14T08:53:36.557Z,966.39
2016-02-14T08:54:36.623Z,966.38
2016-02-14T08:55:36.656Z,966.36
2016-02-14T08:56:36.565Z,966.4
2016-02-14T08:57:36.631Z,966.41
2016-02-14T08:58:36.555Z,966.42
2016-02-14T08:59:36.620Z,966.47
2016-02-14T09:00:36.607Z,966.51
2016-02-14T09:01:36.626Z,966.51
2016-02-14T09:02:36.597Z,966.56
2016-02-14T09:03:36.569Z,966.54
2016-02-14T09:04:36.619Z,966.56
2016-02-14T09:05:36.558Z,966.49
2016-02-14T09:06:36.624Z,966.51
2016-02-14T09:07:36.626Z,966.54
2016-02-14T09:08:36.629Z,966.53
2016-02-14T09:09:36.554Z,966.51
2016-02-14T09:10:36.634Z,966.58
2016-02-14T09:11:36.653Z,966.56
2016-02-14T09:12:36.624Z,966.62
2016-02-14T09:13:36.549Z,966.62
2016-02-14T09:14:36.582Z,966.63
2016-02-14T09:15:36.554Z,966.6
2016-02-14T09:16:36.651Z,966.65
2016-02-14T09:17:36.621Z,966.67
2016-02-14T09:18:36.828Z,966.64
2016-02-14T09:19:36.627Z,966.63
2016-02-14T09:20:36.646Z,966.64
2016-02-14T09:21:36.632Z,966.63
2016-02-14T09:22:36.651Z,966.63
2016-02-14T09:23:36.623Z,966.67
2016-02-14T09:24:36.625Z,966.64
2016-02-14T09:25:36.658Z,966.67
2016-02-14T09:26:36.631Z,966.68
2016-02-14T09:27:36.617Z,966.71
2016-02-14T09:28:36.620Z,966.75
2016-02-14T09:29:36.623Z,966.7
2016-02-14T09:30:36.625Z,966.73
2016-02-14T09:31:36.675Z,966.69
2016-02-14T09:32:36.616Z,966.73
2016-02-14T09:33:36.618Z,966.76
2016-02-14T09:34:36.558Z,966.79
2016-02-14T09:35:36.561Z,966.75
2016-02-14T09:36:36.563Z,966.83
2016-02-14T09:37:36.630Z,966.84
2016-02-14T09:38:36.632Z,966.88
2016-02-14T09:39:36.571Z,966.84
2016-02-14T09:40:36.638Z,966.92
2016-02-14T09:41:36.624Z,966.96
2016-02-14T09:42:36.563Z,966.95
2016-02-14T09:43:36.629Z,966.98
2016-02-14T09:44:36.632Z,967.01
2016-02-14T09:45:36.635Z,967
2016-02-14T09:46:36.559Z,966.98
2016-02-14T09:47:36.624Z,967.03
2016-02-14T09:48:36.627Z,967
2016-02-14T09:49:36.629Z,967.03
2016-02-14T09:50:36.632Z,967.01
2016-02-14T09:51:36.572Z,967.05
2016-02-14T09:52:36.654Z,967.04
2016-02-14T09:53:36.656Z,967.02
2016-02-14T09:54:36.643Z,967.01
2016-02-14T09:55:36.646Z,967.03
2016-02-14T09:56:36.586Z,967.04
2016-02-14T09:57:36.604Z,967.04
2016-02-14T09:58:36.639Z,967.03
2016-02-14T09:59:36.672Z,967.09
2016-02-14T10:00:36.659Z,967.01
2016-02-14T10:01:36.662Z,967.01
2016-02-14T10:02:36.681Z,967.04
2016-02-14T10:03:36.589Z,967
2016-02-14T10:04:36.669Z,967.02
2016-02-14T10:05:36.595Z,967.07
2016-02-14T10:06:36.660Z,967.06
2016-02-14T10:07:36.662Z,967.06
2016-02-14T10:08:36.697Z,967.09
2016-02-14T10:09:36.652Z,967.1
2016-02-14T10:10:36.671Z,967.13
2016-02-14T10:11:36.674Z,967.13
2016-02-14T10:12:36.707Z,967.13
2016-02-14T10:13:36.694Z,967.17
2016-02-14T10:14:36.650Z,967.14
2016-02-14T10:15:36.684Z,967.12
2016-02-14T10:16:36.780Z,967.07
2016-02-14T10:17:36.690Z,967.07
2016-02-14T10:18:36.615Z,967.05
2016-02-14T10:19:36.632Z,967.05
2016-02-14T10:20:36.681Z,967
2016-02-14T10:21:36.685Z,966.96
2016-02-14T10:22:36.687Z,966.92
2016-02-14T10:23:36.627Z,966.88
2016-02-14T10:24:36.646Z,966.88
2016-02-14T10:25:36.789Z,966.91
2016-02-14T10:26:36.636Z,966.88
2016-02-14T10:27:36.639Z,966.82
2016-02-14T10:28:36.703Z,966.79
2016-02-14T10:29:36.644Z,966.83
2016-02-14T10:30:36.647Z,966.79
2016-02-14T10:31:36.649Z,966.79
2016-02-14T10:32:36.698Z,966.78
2016-02-14T10:33:36.655Z,966.76
2016-02-14T10:34:36.720Z,966.8
2016-02-14T10:35:36.660Z,966.91
2016-02-14T10:36:36.708Z,966.93
2016-02-14T10:37:36.731Z,967.01
2016-02-14T10:38:36.733Z,967.03
2016-02-14T10:39:36.752Z,966.99
2016-02-14T10:40:36.676Z,966.99
2016-02-14T10:41:36.741Z,967.03
2016-02-14T10:42:36.775Z,967.05
2016-02-14T10:43:36.731Z,967.16
2016-02-14T10:44:36.671Z,967.16
2016-02-14T10:45:36.736Z,967.18
2016-02-14T10:46:36.677Z,967.17
2016-02-14T10:47:36.694Z,967.17
2016-02-14T10:48:36.761Z,967.23
2016-02-14T10:49:36.685Z,967.23
2016-02-14T10:50:36.687Z,967.27
2016-02-14T10:51:36.752Z,967.23
2016-02-14T10:52:36.754Z,967.26
2016-02-14T10:53:36.757Z,967.21
2016-02-14T10:54:36.760Z,967.16
2016-02-14T10:55:36.763Z,967.14
2016-02-14T10:56:36.782Z,967.22
2016-02-14T10:57:36.706Z,967.21
2016-02-14T10:58:36.787Z,967.24
2016-02-14T10:59:36.774Z,967.28
2016-02-14T11:00:36.792Z,967.24
2016-02-14T11:01:36.717Z,967.29
2016-02-14T11:02:36.798Z,967.32
2016-02-14T11:03:36.785Z,967.35
2016-02-14T11:04:36.787Z,967.44
2016-02-14T11:05:36.728Z,967.42
2016-02-14T11:06:36.746Z,967.39
2016-02-14T11:07:36.795Z,967.37
2016-02-14T11:08:36.735Z,967.29
2016-02-14T11:09:36.754Z,967.35
2016-02-14T11:10:36.772Z,967.39
2016-02-14T11:11:36.744Z,967.41
2016-02-14T11:12:36.747Z,967.39
2016-02-14T11:13:36.827Z,967.43
2016-02-14T11:14:36.830Z,967.45
2016-02-14T11:15:36.833Z,967.42
2016-02-14T11:16:36.835Z,967.43
2016-02-14T11:17:36.838Z,967.38
2016-02-14T11:18:36.841Z,967.43
2016-02-14T11:19:36.844Z,967.34
2016-02-14T11:20:36.862Z,967.37
2016-02-14T11:21:36.849Z,967.39
2016-02-14T11:22:36.789Z,967.36
2016-02-14T11:23:36.854Z,967.39
2016-02-14T11:24:36.857Z,967.37
2016-02-14T11:25:36.859Z,967.37
2016-02-14T11:26:36.972Z,967.42
2016-02-14T11:27:36.881Z,967.33
2016-02-14T11:28:36.867Z,967.36
2016-02-14T11:29:36.871Z,967.37
2016-02-14T11:30:36.889Z,967.37
2016-02-14T11:31:36.906Z,967.4
2016-02-14T11:32:36.895Z,967.37
2016-02-14T11:33:36.881Z,967.38
2016-02-14T11:34:36.853Z,967.41
2016-02-14T11:35:36.903Z,967.42
2016-02-14T11:36:36.889Z,967.48
2016-02-14T11:37:36.829Z,967.47
2016-02-14T11:38:36.925Z,967.5
2016-02-14T11:39:36.913Z,967.48
2016-02-14T11:41:36.840Z,967.43
2016-02-14T11:42:37.030Z,967.45
2016-02-14T11:43:36.908Z,967.44
2016-02-14T11:44:36.895Z,967.49
2016-02-14T11:45:36.913Z,967.52
2016-02-14T11:46:37.072Z,967.5
2016-02-14T11:47:37.028Z,967.43
2016-02-14T11:48:36.952Z,967.45
2016-02-14T11:49:36.941Z,967.46
2016-02-14T11:50:36.943Z,967.49
2016-02-14T11:51:36.883Z,967.48
2016-02-14T11:52:36.885Z,967.53
2016-02-14T11:53:36.887Z,967.53
2016-02-14T11:54:36.891Z,967.47
2016-02-14T11:55:36.893Z,967.53
2016-02-14T11:56:36.896Z,967.59
2016-02-14T11:57:36.977Z,967.6
2016-02-14T11:58:36.901Z,967.59
2016-02-14T11:59:36.904Z,967.74
2016-02-14T12:00:36.969Z,967.84
2016-02-14T12:01:36.972Z,967.84
2016-02-14T12:02:36.912Z,967.83
2016-02-14T12:03:36.992Z,967.88
2016-02-14T12:04:36.995Z,967.91
2016-02-14T12:05:36.983Z,967.9
2016-02-14T12:06:36.922Z,967.89
2016-02-14T12:07:36.925Z,967.8
2016-02-14T12:08:37.022Z,967.74
2016-02-14T12:09:36.994Z,967.67
2016-02-14T12:10:36.950Z,967.6
2016-02-14T12:11:36.999Z,967.58
2016-02-14T12:12:37.048Z,967.6
2016-02-14T12:13:36.942Z,967.64
2016-02-14T12:14:37.022Z,967.65
2016-02-14T12:15:36.947Z,967.64
2016-02-14T12:16:37.028Z,967.62
2016-02-14T12:17:37.015Z,967.64
2016-02-14T12:18:36.955Z,967.69
2016-02-14T12:19:37.035Z,967.69
2016-02-14T12:20:37.055Z,967.65
2016-02-14T12:21:37.041Z,967.68
2016-02-14T12:22:37.059Z,967.71
2016-02-14T12:23:37.047Z,967.73
2016-02-14T12:24:37.065Z,967.84
2016-02-14T12:25:37.052Z,967.9
2016-02-14T12:26:37.054Z,967.95
2016-02-14T12:27:37.058Z,967.97
2016-02-14T12:28:37.076Z,967.85
2016-02-14T12:29:37.000Z,967.78
2016-02-14T12:30:37.082Z,967.77
2016-02-14T12:31:37.068Z,967.74
2016-02-14T12:32:37.102Z,967.73